Robles del Rio, California
Current Conditions -  °F | °C
As of 6:54 AM on Thursday 23 Oct 2014 (Local Time) from KMRY Reporting Station
Clear Clear  
Wind Chill: 56°   Ceiling: Unl
Heat Index: 56°   Visibility: 10mi
Dew Point: 49°   Wind: 3mph
Humidity: 77%   Direction: 90°E
Pressure: 30.04"   Gusts: NA
Location:  36.407°N, 121.657°W
Report Text: KMRY 231354Z 09003KT 10SM CLR 13/09 A3004 RMK AO2 SLP185 T01330094
Loading
Personal Weather Stations






























Interactive Weather Map
Tropical Storm Tracking
New forecast layout! Learn more

10-Day Weather Forecast

Advertisements
Track Severe Weather on mobile